Time;durP1;ratioP1;P1;durP2;ratioP2;P2;SDS_P1;SDS_P2;PMS_P1;PMS_P2;Temp;Humidity;BMP_temperature;BMP_pressure;BME280_temperature;BME280_humidity;BME280_pressure;Samples;Min_cycle;Max_cycle;Signal;HPM_P1;HPM_P2
2021/04/23 00:04:53;;;;;;;17.80;6.92;;;;;;;8.21;55.74;99458.44;3933070;90;28600;-86
2021/04/23 00:10:56;;;;;;;17.52;6.53;;;;;;;8.15;57.41;99454.41;4010825;88;28617;-86
2021/04/23 00:16:58;;;;;;;15.65;7.20;;;;;;;8.33;56.20;99460.50;4042770;87;28580;-86
2021/04/23 00:23:07;;;;;;;19.85;7.17;;;;;;;8.51;57.76;99450.02;3970898;90;28589;-87
2021/04/23 00:29:10;;;;;;;21.07;7.40;;;;;;;8.36;57.17;99454.75;3944884;90;28653;-86
2021/04/23 00:35:14;;;;;;;18.30;6.72;;;;;;;8.47;57.06;99455.97;4022212;87;28644;-85
2021/04/23 00:41:24;;;;;;;20.60;7.42;;;;;;;8.04;60.35;99452.66;4040537;87;28563;-85
2021/04/23 00:47:26;;;;;;;18.05;6.42;;;;;;;7.87;59.26;99446.87;3998342;87;28591;-85
2021/04/23 00:53:32;;;;;;;18.80;6.78;;;;;;;8.06;59.73;99450.59;4066703;86;28642;-85
2021/04/23 00:59:34;;;;;;;13.83;5.58;;;;;;;7.81;61.73;99451.19;4050907;87;28645;-85
2021/04/23 01:05:37;;;;;;;15.68;6.30;;;;;;;7.95;61.42;99454.72;4048025;87;28675;-85
2021/04/23 01:11:40;;;;;;;21.07;6.97;;;;;;;7.80;62.65;99449.54;4038891;87;28656;-86
2021/04/23 01:17:42;;;;;;;17.05;6.67;;;;;;;7.91;61.37;99457.50;3932329;90;28651;-86
2021/04/23 01:23:47;;;;;;;17.50;6.62;;;;;;;8.20;59.70;99466.16;3920833;90;28641;-86
2021/04/23 01:29:50;;;;;;;20.72;6.87;;;;;;;8.00;61.17;99466.66;3905526;89;28623;-86
2021/04/23 01:35:53;;;;;;;16.82;6.40;;;;;;;8.13;61.11;99465.36;3948558;89;28603;-86
2021/04/23 01:41:57;;;;;;;17.05;6.55;;;;;;;8.23;61.42;99471.14;3903620;90;28589;-85
2021/04/23 01:48:00;;;;;;;18.95;6.60;;;;;;;8.46;60.42;99467.22;3940459;90;28597;-85
2021/04/23 01:54:05;;;;;;;20.43;6.45;;;;;;;8.60;60.83;99468.07;3932369;89;28687;-84
2021/04/23 02:00:16;;;;;;;17.35;6.55;;;;;;;8.79;59.94;99467.73;3954188;88;28615;-85
2021/04/23 02:06:18;;;;;;;17.80;6.47;;;;;;;8.82;60.01;99470.52;3967848;88;28589;-86
2021/04/23 02:12:20;;;;;;;20.25;6.90;;;;;;;9.11;59.04;99476.44;3929269;89;28600;-86
2021/04/23 02:18:24;;;;;;;20.97;8.00;;;;;;;9.32;58.12;99476.67;3915677;90;28584;-85
2021/04/23 02:24:26;;;;;;;16.57;7.60;;;;;;;9.31;58.89;99472.34;3946944;89;28675;-83
2021/04/23 02:30:34;;;;;;;20.88;7.92;;;;;;;9.27;59.35;99481.86;3986306;89;28656;-83
2021/04/23 02:36:36;;;;;;;17.37;7.22;;;;;;;8.87;61.90;99480.08;3959920;88;28697;-82
2021/04/23 02:42:39;;;;;;;20.45;7.47;;;;;;;8.94;63.17;99484.09;3974964;88;28562;-84
2021/04/23 02:48:44;;;;;;;22.37;8.45;;;;;;;8.70;64.51;99494.44;3978476;88;28603;-86
2021/04/23 02:54:48;;;;;;;18.55;7.75;;;;;;;8.55;66.90;99492.51;4064150;86;28611;-85
2021/04/23 03:00:59;;;;;;;22.40;8.50;;;;;;;8.34;66.80;99486.28;4050905;87;28650;-85
2021/04/23 03:07:02;;;;;;;23.52;8.55;;;;;;;8.53;65.89;99492.70;3993910;87;28658;-85
2021/04/23 03:13:08;;;;;;;20.85;8.05;;;;;;;8.45;67.33;99492.37;4013031;87;28640;-85
2021/04/23 03:19:18;;;;;;;18.27;7.80;;;;;;;8.09;71.67;99502.43;3953246;89;28605;-85
2021/04/23 03:25:23;;;;;;;17.12;6.62;;;;;;;8.35;69.81;99502.67;3912932;90;28679;-85
2021/04/23 03:31:26;;;;;;;13.07;6.30;;;;;;;8.35;70.69;99505.34;4016602;87;28614;-86
2021/04/23 03:37:28;;;;;;;17.65;7.53;;;;;;;8.45;70.72;99507.61;3943183;90;28975;-86
2021/04/23 03:43:30;;;;;;;13.55;6.22;;;;;;;8.30;72.63;99511.81;3948809;90;28595;-86
2021/04/23 03:49:32;;;;;;;16.42;6.67;;;;;;;8.40;71.64;99510.09;3949230;89;28639;-86
2021/04/23 03:55:39;;;;;;;13.05;5.92;;;;;;;8.49;72.73;99519.58;3920967;90;28595;-86
2021/04/23 04:01:41;;;;;;;18.60;6.83;;;;;;;8.72;71.21;99529.09;3905048;90;28624;-86
2021/04/23 04:07:43;;;;;;;17.02;6.50;;;;;;;8.62;72.08;99526.81;3897867;90;28608;-84
2021/04/23 04:13:46;;;;;;;14.30;5.80;;;;;;;8.35;75.80;99528.13;3868037;91;28717;-83
2021/04/23 04:19:48;;;;;;;14.78;5.85;;;;;;;8.60;73.39;99536.42;3891325;90;28658;-84
2021/04/23 04:25:57;;;;;;;12.65;5.90;;;;;;;8.71;72.26;99537.64;3853719;90;28615;-83
2021/04/23 04:31:59;;;;;;;17.77;6.25;;;;;;;8.78;72.47;99542.49;3850647;90;28598;-83
2021/04/23 04:38:03;;;;;;;14.65;6.50;;;;;;;8.77;71.29;99548.89;3831649;91;28622;-82
2021/04/23 04:44:05;;;;;;;15.38;5.83;;;;;;;8.99;72.44;99551.85;3831767;91;28627;-83
2021/04/23 04:50:16;;;;;;;12.88;4.97;;;;;;;9.08;72.76;99557.84;3847593;91;28688;-86
2021/04/23 04:56:27;;;;;;;17.37;5.55;;;;;;;9.48;70.29;99554.55;4618241;76;85330;-84
2021/04/23 05:02:29;;;;;;;14.15;5.80;;;;;;;9.11;71.83;99567.65;4520287;78;28587;-84
2021/04/23 05:08:32;;;;;;;16.32;6.00;;;;;;;9.41;70.57;99573.05;4474145;78;28600;-84
2021/04/23 05:14:34;;;;;;;16.12;5.92;;;;;;;9.61;69.12;99585.06;4389668;80;28581;-83
2021/04/23 05:20:37;;;;;;;18.20;7.22;;;;;;;9.32;70.44;99585.34;4363666;81;28580;-83
2021/04/23 05:26:40;;;;;;;17.10;7.00;;;;;;;9.68;68.88;99589.06;4344377;81;28558;-84
2021/04/23 05:32:42;;;;;;;18.60;7.83;;;;;;;9.49;70.21;99592.42;4343300;81;28578;-89
2021/04/23 05:38:47;;;;;;;17.85;7.80;;;;;;;9.49;73.23;99603.16;4325986;81;28630;-84
2021/04/23 05:44:50;;;;;;;17.35;7.42;;;;;;;9.25;74.68;99597.13;4342859;81;28575;-84
2021/04/23 05:50:52;;;;;;;17.92;7.83;;;;;;;9.34;75.39;99607.95;4370758;80;28617;-83
2021/04/23 05:56:54;;;;;;;18.73;6.75;;;;;;;9.56;72.46;99615.76;4358042;81;28684;-84
2021/04/23 06:02:59;;;;;;;18.70;6.42;;;;;;;10.40;67.07;99607.75;4368575;81;28638;-82
2021/04/23 06:09:01;;;;;;;19.62;7.10;;;;;;;10.33;65.76;99597.04;4339063;80;28575;-84
2021/04/23 06:15:07;;;;;;;20.65;7.25;;;;;;;10.71;65.00;99593.22;4342816;81;28568;-84
2021/04/23 06:21:10;;;;;;;16.23;6.53;;;;;;;10.73;64.11;99596.52;4370543;81;28615;-88
2021/04/23 06:27:12;;;;;;;16.48;7.42;;;;;;;10.96;63.24;99604.50;4351228;81;28649;-87
2021/04/23 06:33:20;;;;;;;17.67;7.17;;;;;;;10.80;64.12;99616.12;4362411;80;28597;-87
2021/04/23 06:39:22;;;;;;;20.70;8.45;;;;;;;11.32;60.65;99631.73;4353354;81;28603;-86
2021/04/23 06:45:24;;;;;;;19.17;7.50;;;;;;;11.13;62.09;99624.44;4368117;80;28618;-87
2021/04/23 06:51:27;;;;;;;14.70;6.92;;;;;;;11.40;60.71;99620.17;4355602;81;28588;-86
2021/04/23 06:57:29;;;;;;;16.57;7.60;;;;;;;12.02;58.08;99620.31;4403185;80;28643;-86
2021/04/23 07:03:31;;;;;;;16.23;7.50;;;;;;;11.82;58.03;99630.28;4390770;80;28594;-85
2021/04/23 07:09:33;;;;;;;14.05;7.40;;;;;;;12.02;58.24;99629.74;4398394;81;28601;-84
2021/04/23 07:15:37;;;;;;;14.50;6.80;;;;;;;12.05;56.63;99643.63;4400514;80;28635;-85
2021/04/23 07:21:39;;;;;;;19.00;8.10;;;;;;;11.58;58.89;99652.19;4395691;80;28643;-86
2021/04/23 07:27:42;;;;;;;17.35;7.50;;;;;;;12.09;57.75;99641.30;4370392;80;28587;-87
2021/04/23 07:33:46;;;;;;;23.12;9.15;;;;;;;12.20;57.53;99632.45;4349117;80;28937;-87
2021/04/23 07:39:49;;;;;;;22.32;9.15;;;;;;;12.29;56.24;99642.93;4305402;81;28573;-88
2021/04/23 07:45:52;;;;;;;21.73;9.35;;;;;;;12.00;56.01;99653.70;4414875;79;28618;-88
2021/04/23 07:51:55;;;;;;;19.40;9.73;;;;;;;12.92;53.76;99634.87;4378835;79;28618;-84
2021/04/23 07:57:58;;;;;;;20.52;9.83;;;;;;;13.01;52.76;99644.79;4369149;80;28603;-85
2021/04/23 08:04:01;;;;;;;21.10;10.00;;;;;;;13.14;52.35;99642.41;4387513;80;28541;-85
2021/04/23 08:10:04;;;;;;;15.28;8.10;;;;;;;14.08;49.94;99639.88;4316706;81;28614;-85
2021/04/23 08:16:07;;;;;;;19.25;9.28;;;;;;;13.67;50.39;99658.77;4355813;80;28629;-85
2021/04/23 08:22:10;;;;;;;16.50;8.90;;;;;;;12.81;52.65;99656.72;4344444;81;28576;-83
2021/04/23 08:28:12;;;;;;;14.83;8.15;;;;;;;12.45;56.50;99664.39;4354578;81;28600;-83
2021/04/23 08:34:14;;;;;;;18.62;8.45;;;;;;;12.53;54.60;99654.09;4346925;80;28602;-83
2021/04/23 08:40:20;;;;;;;16.55;8.10;;;;;;;14.03;52.24;99639.24;4350526;80;28638;-82
2021/04/23 08:46:23;;;;;;;15.28;7.50;;;;;;;13.86;48.87;99646.47;4367100;80;28626;-84
2021/04/23 08:52:26;;;;;;;13.45;6.97;;;;;;;14.46;47.63;99640.33;4356381;80;28661;-83
2021/04/23 09:04:57;;;;;;;14.33;7.30;;;;;;;14.04;46.62;99624.66;4356469;80;273685;-83
2021/04/23 09:11:18;;;;;;;13.65;6.97;;;;;;;13.66;49.85;99636.31;4306715;81;28664;-80
2021/04/23 09:17:25;;;;;;;13.28;6.55;;;;;;;13.48;49.83;99636.44;4243451;83;28698;-80
2021/04/23 09:23:28;;;;;;;12.15;6.53;;;;;;;14.05;48.28;99638.47;4143698;85;28569;-80
2021/04/23 09:29:33;;;;;;;11.68;6.85;;;;;;;13.79;44.73;99628.49;4237023;82;28653;-80
2021/04/23 09:35:36;;;;;;;11.15;5.40;;;;;;;14.13;44.54;99622.42;4159665;84;28674;-81
2021/04/23 09:41:48;;;;;;;12.93;5.85;;;;;;;13.81;44.54;99620.16;4159950;84;28642;-80
2021/04/23 09:47:51;;;;;;;9.08;5.70;;;;;;;14.61;43.16;99614.08;4229483;83;28577;-79
2021/04/23 09:54:16;;;;;;;12.23;5.30;;;;;;;15.00;42.05;99614.23;4236320;83;28631;-82
2021/04/23 10:00:25;;;;;;;6.33;3.35;;;;;;;14.38;42.11;99610.44;4195286;83;28682;-81
2021/04/23 10:06:44;;;;;;;8.15;3.77;;;;;;;13.81;39.65;99610.70;4105059;85;28597;-83
2021/04/23 10:13:16;;;;;;;8.45;4.00;;;;;;;13.78;40.10;99606.58;4453481;78;80624;-82
2021/04/23 10:19:18;;;;;;;6.33;3.92;;;;;;;14.14;40.26;99609.19;4370714;80;28577;-81
2021/04/23 10:25:29;;;;;;;9.38;4.85;;;;;;;14.89;39.38;99590.77;4401015;80;28572;-80
2021/04/23 10:32:07;;;;;;;6.58;4.03;;;;;;;14.86;39.37;99591.27;4371421;80;28576;-80
2021/04/23 10:38:22;;;;;;;7.78;3.20;;;;;;;14.66;40.70;99613.35;4417246;80;28598;-80
2021/04/23 10:44:57;;;;;;;5.47;3.00;;;;;;;12.03;59.06;99667.80;4383377;80;28617;-79
2021/04/23 10:51:05;;;;;;;5.03;3.58;;;;;;;12.53;60.67;99640.61;4371357;80;28545;-81
2021/04/23 10:57:07;;;;;;;6.35;3.27;;;;;;;13.50;58.98;99639.20;4387034;80;28597;-81
2021/04/23 11:03:24;;;;;;;6.28;3.33;;;;;;;13.33;58.73;99642.28;4469607;78;28570;-81
2021/04/23 11:09:27;;;;;;;5.72;3.40;;;;;;;14.01;57.65;99629.20;4314486;81;28560;-82
2021/04/23 11:15:29;;;;;;;5.92;2.50;;;;;;;13.34;59.02;99635.85;4327058;80;28599;-82
2021/04/23 11:21:38;;;;;;;5.30;3.25;;;;;;;11.85;54.89;99665.39;4308376;80;28599;-83
2021/04/23 11:28:07;;;;;;;6.87;4.40;;;;;;;12.72;54.12;99663.48;4328126;81;28666;-81
2021/04/23 11:34:34;;;;;;;6.25;2.98;;;;;;;12.34;55.21;99658.72;4368629;80;28601;-83
2021/04/23 11:40:37;;;;;;;7.42;4.20;;;;;;;11.51;59.13;99671.11;4325537;81;28595;-81
2021/04/23 11:46:54;;;;;;;11.18;4.78;;;;;;;11.62;68.26;99676.81;4313601;80;28624;-80
2021/04/23 11:53:01;;;;;;;7.55;4.40;;;;;;;10.52;81.64;99686.44;4323226;80;28676;-80
2021/04/23 11:59:06;;;;;;;;;;;;;;;12.04;72.83;99678.36;4335499;81;28598;-81
2021/04/23 12:05:25;;;;;;;7.25;3.50;;;;;;;12.48;73.30;99662.06;4324966;81;20179;-81
2021/04/23 12:11:27;;;;;;;6.80;4.30;;;;;;;12.47;70.73;99682.52;4316195;81;28629;-81
2021/04/23 12:17:41;;;;;;;10.13;5.87;;;;;;;11.77;73.83;99684.54;4331009;82;28599;-81
2021/04/23 12:23:45;;;;;;;9.75;3.90;;;;;;;10.78;90.21;99711.01;4241508;83;28633;-82
2021/04/23 12:29:49;;;;;;;6.62;4.10;;;;;;;10.25;88.07;99726.28;4233755;83;28589;-81
2021/04/23 12:35:52;;;;;;;10.05;5.25;;;;;;;10.37;87.96;99724.31;4279765;81;28600;-85
2021/04/23 12:41:59;;;;;;;9.58;4.50;;;;;;;10.94;87.58;99702.10;4309118;81;28584;-82
2021/04/23 12:48:01;;;;;;;8.00;4.35;;;;;;;12.28;72.43;99689.27;4295811;82;28606;-83
2021/04/23 12:54:05;;;;;;;6.28;4.37;;;;;;;13.39;66.61;99663.80;4263700;81;28605;-84
2021/04/23 13:00:15;;;;;;;8.40;4.90;;;;;;;13.44;69.04;99654.16;4265010;83;28625;-82
2021/04/23 13:06:24;;;;;;;12.43;5.37;;;;;;;13.32;66.40;99656.84;4275669;83;28609;-83
2021/04/23 13:12:35;;;;;;;8.90;5.05;;;;;;;13.09;61.51;99651.20;4198278;83;28608;-83
2021/04/23 13:18:35;;;;;;;12.05;5.40;;;;;;;13.86;60.67;99637.81;4174325;83;28604;-81
2021/04/23 13:24:37;;;;;;;8.90;5.67;;;;;;;14.25;57.68;99635.08;4210649;84;28612;-83
2021/04/23 13:30:50;;;;;;;11.65;6.45;;;;;;;14.22;57.65;99636.37;4175335;84;28569;-81
2021/04/23 13:36:53;;;;;;;12.90;6.62;;;;;;;14.34;57.10;99629.03;4233279;84;28610;-83
2021/04/23 13:43:10;;;;;;;11.73;7.10;;;;;;;14.85;54.02;99636.45;4188224;84;28678;-83
2021/04/23 13:49:18;;;;;;;6.22;3.40;;;;;;;14.55;55.31;99648.89;4174446;84;28596;-82
2021/04/23 13:55:20;;;;;;;5.62;3.17;;;;;;;10.45;73.82;99685.09;4213689;84;28686;-81
2021/04/23 14:01:36;;;;;;;7.97;3.30;;;;;;;9.82;87.19;99664.54;4197117;84;28604;-81
2021/04/23 14:07:40;;;;;;;7.42;3.58;;;;;;;10.00;81.30;99673.80;4237009;82;28575;-83
2021/04/23 14:13:57;;;;;;;7.53;3.47;;;;;;;10.21;79.91;99665.95;4293652;82;28663;-83
2021/04/23 14:20:12;;;;;;;8.55;5.17;;;;;;;11.41;73.22;99652.78;4585500;76;72636;-90
2021/04/23 14:26:15;;;;;;;9.65;5.55;;;;;;;12.08;65.92;99654.48;4502329;78;28645;-89
2021/04/23 14:32:18;;;;;;;9.60;4.95;;;;;;;12.97;57.99;99635.53;4463918;78;28576;-90
2021/04/23 14:38:21;;;;;;;11.78;5.45;;;;;;;14.02;53.51;99638.16;4438656;79;28675;-87
2021/04/23 14:44:23;;;;;;;10.85;5.12;;;;;;;14.28;53.05;99627.83;4390658;79;28640;-85
2021/04/23 14:50:25;;;;;;;11.43;5.72;;;;;;;14.28;52.98;99621.06;4340425;81;28613;-84
2021/04/23 14:56:27;;;;;;;5.83;3.40;;;;;;;14.46;52.45;99629.50;4358744;81;28606;-85
2021/04/23 15:02:30;;;;;;;12.45;5.15;;;;;;;14.19;48.64;99639.02;4349650;80;28579;-83
2021/04/23 15:08:33;;;;;;;11.30;5.85;;;;;;;14.37;51.07;99646.66;4315187;81;28577;-85
2021/04/23 15:14:36;;;;;;;17.10;6.97;;;;;;;12.23;60.53;99683.20;4321145;81;28709;-84
2021/04/23 15:20:39;;;;;;;11.53;5.85;;;;;;;12.82;58.98;99635.42;4312465;81;28595;-82
2021/04/23 15:26:41;;;;;;;11.38;5.37;;;;;;;12.35;58.20;99633.40;4294469;81;28596;-80
2021/04/23 15:32:44;;;;;;;12.88;6.60;;;;;;;12.55;56.98;99632.30;4309939;81;28643;-81
2021/04/23 15:38:48;;;;;;;13.32;6.50;;;;;;;12.80;58.45;99632.14;4373783;81;28595;-82
2021/04/23 15:44:54;;;;;;;10.93;6.78;;;;;;;13.94;54.41;99626.64;4371333;80;28575;-85
2021/04/23 15:50:59;;;;;;;18.57;7.53;;;;;;;14.04;53.92;99631.97;4350994;80;28600;-83
2021/04/23 15:57:01;;;;;;;17.00;7.97;;;;;;;14.22;51.83;99637.72;4327713;80;28536;-83
2021/04/23 16:03:06;;;;;;;22.15;8.58;;;;;;;14.40;52.19;99634.00;4349864;81;28629;-82
2021/04/23 16:09:09;;;;;;;20.57;9.35;;;;;;;14.11;52.00;99631.31;4362090;81;28571;-81
2021/04/23 16:15:16;;;;;;;17.75;8.68;;;;;;;14.15;51.00;99627.05;4361813;80;28608;-83
2021/04/23 16:21:19;;;;;;;15.08;7.55;;;;;;;14.21;52.43;99626.10;4295028;81;28584;-83
2021/04/23 16:27:23;;;;;;;14.60;8.35;;;;;;;14.26;51.32;99637.52;4415737;79;28574;-82
2021/04/23 16:33:26;;;;;;;16.95;7.83;;;;;;;13.74;54.91;99635.13;4406704;79;28948;-84
2021/04/23 16:39:28;;;;;;;15.60;7.75;;;;;;;13.84;53.00;99637.75;4391603;80;28593;-84
2021/04/23 16:45:38;;;;;;;17.20;7.58;;;;;;;13.82;53.25;99635.83;4422937;80;28662;-80
2021/04/23 16:51:40;;;;;;;15.03;7.50;;;;;;;13.93;53.22;99651.20;4369759;79;28594;-83
2021/04/23 16:57:44;;;;;;;7.50;4.03;;;;;;;13.88;52.90;99649.75;4381880;79;28681;-83
2021/04/23 17:03:46;;;;;;;8.65;3.92;;;;;;;13.01;40.09;99654.75;4304576;81;28580;-82
2021/04/23 17:09:49;;;;;;;9.88;4.17;;;;;;;13.42;39.59;99662.48;4286365;81;28645;-82
2021/04/23 17:15:51;;;;;;;7.28;3.60;;;;;;;13.00;40.38;99677.41;4307901;81;28654;-82
2021/04/23 17:21:54;;;;;;;8.30;3.95;;;;;;;12.97;40.80;99680.86;4286662;81;28586;-82
2021/04/23 17:27:56;;;;;;;10.90;4.70;;;;;;;12.95;40.22;99691.08;4313232;81;28583;-82
2021/04/23 17:33:58;;;;;;;11.12;5.22;;;;;;;12.58;41.43;99723.55;4312439;82;28603;-85
2021/04/23 17:40:05;;;;;;;15.25;5.58;;;;;;;11.26;49.51;99729.00;4362041;80;28595;-81
2021/04/23 17:46:08;;;;;;;11.67;5.70;;;;;;;10.80;53.96;99745.74;4351614;80;28603;-82
2021/04/23 17:52:11;;;;;;;14.10;5.22;;;;;;;11.60;52.02;99734.93;4338705;81;28591;-82
2021/04/23 17:58:14;;;;;;;12.30;5.03;;;;;;;11.28;53.87;99743.89;4372667;81;28575;-81
2021/04/23 18:04:16;;;;;;;11.00;5.10;;;;;;;11.73;52.55;99750.69;4354517;80;28575;-82
2021/04/23 18:10:20;;;;;;;12.13;5.17;;;;;;;11.54;53.58;99746.06;4345880;81;28582;-82
2021/04/23 18:16:27;;;;;;;18.85;6.05;;;;;;;12.04;52.04;99757.06;4362207;80;28624;-82
2021/04/23 18:22:28;;;;;;;13.03;4.85;;;;;;;11.79;52.89;99763.26;4389744;80;28624;-83
2021/04/23 18:28:30;;;;;;;9.75;5.05;;;;;;;11.59;53.36;99760.22;4398324;80;28586;-83
2021/04/23 18:34:33;;;;;;;11.45;5.55;;;;;;;11.85;52.29;99771.28;4314246;81;28645;-83
2021/04/23 18:40:36;;;;;;;12.98;5.47;;;;;;;11.27;56.98;99774.55;4302604;81;28580;-84
2021/04/23 18:46:40;;;;;;;11.55;4.80;;;;;;;11.32;58.90;99786.52;4320830;81;28560;-83
2021/04/23 18:52:43;;;;;;;11.00;4.40;;;;;;;11.22;59.97;99785.13;4304700;81;28598;-82
2021/04/23 18:58:46;;;;;;;15.63;5.72;;;;;;;11.18;61.21;99786.62;4297632;82;28627;-82
2021/04/23 19:04:49;;;;;;;17.77;6.80;;;;;;;11.11;61.51;99785.31;4305798;81;28669;-81
2021/04/23 19:10:52;;;;;;;13.30;6.12;;;;;;;11.26;59.54;99788.22;4282477;81;28620;-82
2021/04/23 19:16:54;;;;;;;15.05;7.03;;;;;;;11.08;60.97;99799.18;4311507;81;28607;-82
2021/04/23 19:22:57;;;;;;;13.43;6.58;;;;;;;10.89;61.74;99804.98;4363082;81;28621;-82
2021/04/23 19:29:00;;;;;;;16.17;6.60;;;;;;;11.22;61.01;99807.20;4356035;81;28568;-81
2021/04/23 19:35:04;;;;;;;20.68;8.05;;;;;;;11.09;61.50;99813.48;4361959;80;28633;-80
2021/04/23 19:41:07;;;;;;;17.73;7.15;;;;;;;10.86;61.72;99821.02;4370200;81;28610;-81
2021/04/23 19:47:11;;;;;;;23.60;10.15;;;;;;;11.00;62.34;99835.25;4327162;80;28557;-80
2021/04/23 19:53:13;;;;;;;21.50;10.00;;;;;;;10.09;61.83;99843.11;4355710;81;28603;-82
2021/04/23 19:59:16;;;;;;;24.43;10.68;;;;;;;10.43;59.15;99839.91;4362853;80;28595;-84
2021/04/23 20:05:21;;;;;;;20.32;10.05;;;;;;;11.04;56.62;99830.27;4395908;80;28582;-80
2021/04/23 20:11:24;;;;;;;24.77;10.35;;;;;;;11.68;54.81;99841.05;4389807;80;28593;-81
2021/04/23 20:17:27;;;;;;;25.43;11.18;;;;;;;11.58;56.15;99821.86;4340232;80;28634;-81
2021/04/23 20:23:30;;;;;;;21.12;9.38;;;;;;;11.29;58.85;99820.08;4354922;80;28583;-81
2021/04/23 20:29:32;;;;;;;19.73;9.13;;;;;;;11.47;57.12;99831.48;4355352;81;28657;-81
2021/04/23 20:35:34;;;;;;;20.55;8.35;;;;;;;11.10;58.75;99822.69;4318718;81;28658;-81
2021/04/23 20:41:36;;;;;;;18.45;8.20;;;;;;;11.05;59.73;99814.95;4344157;80;28619;-82
2021/04/23 20:47:39;;;;;;;21.48;9.40;;;;;;;11.28;59.08;99824.66;4354391;80;28587;-81
2021/04/23 20:53:41;;;;;;;21.05;9.18;;;;;;;11.25;61.07;99816.18;4362839;81;28583;-83
2021/04/23 20:59:44;;;;;;;21.87;9.15;;;;;;;11.10;62.40;99825.37;4356776;80;28634;-82
2021/04/23 21:05:47;;;;;;;20.43;10.18;;;;;;;10.98;65.41;99832.45;4347209;81;28575;-82
2021/04/23 21:11:50;;;;;;;21.05;9.40;;;;;;;10.86;62.23;99841.20;4333132;80;28618;-82
2021/04/23 21:17:54;;;;;;;20.43;9.03;;;;;;;11.32;61.12;99842.55;4341725;80;28618;-83
2021/04/23 21:23:58;;;;;;;17.37;8.98;;;;;;;11.47;63.83;99842.25;4349573;80;28625;-82
2021/04/23 21:30:02;;;;;;;21.85;8.80;;;;;;;10.96;67.42;99840.77;4352891;80;28670;-82
2021/04/23 21:36:06;;;;;;;19.17;8.95;;;;;;;10.82;69.66;99839.98;4337322;80;28687;-82
2021/04/23 21:42:09;;;;;;;19.32;9.03;;;;;;;11.15;66.87;99829.58;4339171;80;28571;-82
2021/04/23 21:48:11;;;;;;;20.70;9.45;;;;;;;11.10;71.00;99825.89;4324921;80;28610;-82
2021/04/23 21:54:13;;;;;;;19.15;9.45;;;;;;;11.14;68.48;99827.09;4340036;80;28625;-82
2021/04/23 22:00:17;;;;;;;19.80;9.30;;;;;;;11.20;69.28;99811.98;4382660;80;28663;-82
2021/04/23 22:06:19;;;;;;;18.57;9.15;;;;;;;10.86;73.11;99814.30;4345905;80;28654;-84
2021/04/23 22:12:21;;;;;;;24.40;10.98;;;;;;;11.18;71.63;99804.62;4359127;80;28575;-83
2021/04/23 22:18:24;;;;;;;21.73;10.03;;;;;;;11.03;70.54;99813.81;4305830;81;28616;-83
2021/04/23 22:24:26;;;;;;;26.45;11.05;;;;;;;11.44;65.17;99816.58;4390731;80;28686;-81
2021/04/23 22:30:28;;;;;;;22.85;10.75;;;;;;;11.14;66.86;99825.24;4405013;80;28629;-82
2021/04/23 22:36:31;;;;;;;25.40;11.10;;;;;;;11.11;66.46;99831.58;4372902;80;28662;-80
2021/04/23 22:42:33;;;;;;;23.12;11.05;;;;;;;11.10;72.66;99830.77;4392481;80;28655;-81
2021/04/23 22:48:37;;;;;;;21.70;10.82;;;;;;;11.15;78.43;99824.20;4381738;80;28575;-81
2021/04/23 22:54:39;;;;;;;21.68;10.75;;;;;;;11.33;76.69;99807.85;4366198;80;28578;-81
2021/04/23 23:00:42;;;;;;;20.75;10.13;;;;;;;10.87;80.87;99809.22;4328449;80;28677;-82
2021/04/23 23:06:50;;;;;;;24.60;10.78;;;;;;;10.91;83.72;99791.33;4349573;81;28580;-82
2021/04/23 23:12:49;;;;;;;23.90;12.35;;;;;;;11.14;79.85;99798.33;4340734;80;28955;-82
2021/04/23 23:18:51;;;;;;;24.60;11.83;;;;;;;10.90;82.91;99798.56;4350261;80;28689;-81
2021/04/23 23:24:53;;;;;;;27.73;13.20;;;;;;;10.63;86.70;99787.94;4376420;80;28622;-81
2021/04/23 23:30:56;;;;;;;24.30;11.73;;;;;;;10.73;84.45;99779.39;4305936;81;28637;-82
2021/04/23 23:36:58;;;;;;;23.40;12.05;;;;;;;10.93;79.72;99775.79;4317452;81;28678;-82
2021/04/23 23:43:00;;;;;;;25.27;11.95;;;;;;;10.62;87.03;99782.76;4331819;80;28569;-83
2021/04/23 23:49:03;;;;;;;31.17;13.80;;;;;;;10.59;80.37;99775.94;4322828;82;28617;-83
2021/04/23 23:55:07;;;;;;;32.23;14.87;;;;;;;10.90;72.50;99779.73;4304155;82;28601;-83
